Aeroporto :
LOGIN :

Iscrizione | Disclaimer

   EN    FR    IT 

 










Sommario :    VFR   VFR Marginale   IFR   IFR Intensivo   IFR Molto Intensivo
Visibilità : 
Base nubi : 
>= 8 km
>= 3000ft
5 / 8 km
1000 / 3000 ft
1500m / 5 km
500 / 1000 ft
800 / 1500m
200 / 500 ft
< 800m
< 200 ft
Simboli :   Temporali  Nebbia  Neve Forte  Precipitazioni Forti  Vento > 20 kt
SIGMETs :   Varie  Temporali  Ghiacco  Turbolenza  Onda orograficha  Ceneri Vulcaniche






- Altitudine del aeroporto : 302 ft
- Codice IATA : CGN


EDDK - Cologne Bonn

ULTIMO METAR :
  • 301950Z VRB02KT 9999 SHRA SCT023 BKN035CB 05/02 Q1026 BECMG NSW

METARs OBSOLETI :
  • 301920Z 03003KT 9999 VCSH SCT030 BKN035TCU 05/01 Q1026 TEMPO SHRA
  • 301850Z 34008KT 310V010 9999 -SHRA SCT025 BKN032TCU 06/01 Q1026 TEMPO SHRA
  • 301820Z 33005KT 9999 -SHRA SCT030TCU SCT040 07/M01 Q1026 TEMPO SHRA
  • 301750Z 32005KT 9999 VCSH SCT038TCU SCT048 07/M01 Q1026 TEMPO SHRA

TAF COR TAF EDDK
Valido dal 30 a 18 ore il 01 a 00 ore UTC


301750Z 3018/3124 31006KT 9999 SCT030
PROB30
TEMPO 3018/3020 SHRA SCT015TCU
BECMG 3018/3021 01005KT
BECMG 3021/3024 VRB03KT
BECMG 3107/3110 07007KT
TEMPO 3120/3124 VRB03KT



MetMap, La meteo Aeronautica in un colpo d'occhio ! - Copyright ORBIFLY Dicembre 2007 - Disclaimer

ORBIFLY MET'MAP TEAM :

Programmazione e sviluppo : Alexandra Zaïnal
Concezione : Baudouin d'Aumeries
Aiuto per la programmazione : Marc-Olivier Méhu
Supporto tecnico e logistico : Manuel Goepfert
Aiuto per la traduzione : Arnaldo La Scala

Contatto : metmap@orbifly.com




FONTI E CREDITI :

   NOAA